Time;durP1;ratioP1;P1;durP2;ratioP2;P2;SDS_P1;SDS_P2;PMS_P1;PMS_P2;Temp;Humidity;BMP_temperature;BMP_pressure;BME280_temperature;BME280_humidity;BME280_pressure;Samples;Min_cycle;Max_cycle;Signal;HPM_P1;HPM_P2
2023/09/14 00:01:21;;;;;;;8.90;7.70;;;;;;;19.24;89.35;99948.61;131178;1253;106526;-79
2023/09/14 00:04:27;;;;;;;9.10;7.40;;;;;;;19.17;89.58;99951.45;131134;1254;107410;-80
2023/09/14 00:07:33;;;;;;;8.80;7.70;;;;;;;19.06;90.86;99953.06;131170;1255;107579;-80
2023/09/14 00:10:39;;;;;;;13.20;8.70;;;;;;;18.96;91.53;99950.48;131166;1253;106343;-80
2023/09/14 00:13:45;;;;;;;9.40;8.30;;;;;;;18.84;91.99;99945.42;131316;1250;106899;-80
2023/09/14 00:16:50;;;;;;;11.30;8.50;;;;;;;18.76;91.76;99941.46;131237;1254;106389;-80
2023/09/14 00:19:56;;;;;;;9.10;7.70;;;;;;;18.69;91.91;99951.80;131199;1251;107528;-80
2023/09/14 00:23:03;;;;;;;10.80;8.20;;;;;;;18.64;92.35;99950.75;131370;1250;106861;-80
2023/09/14 00:26:09;;;;;;;10.70;8.80;;;;;;;18.62;92.08;99945.90;131290;1249;108518;-80
2023/09/14 00:29:14;;;;;;;10.90;9.10;;;;;;;18.60;93.01;99944.64;131395;1252;107688;-80
2023/09/14 00:32:20;;;;;;;10.10;8.70;;;;;;;18.54;92.99;99945.45;131177;1250;107519;-80
2023/09/14 00:35:26;;;;;;;9.80;8.90;;;;;;;18.47;94.26;99947.10;131168;1251;108484;-80
2023/09/14 00:38:32;;;;;;;8.60;7.80;;;;;;;18.45;93.34;99948.30;131210;1254;108447;-80
2023/09/14 00:41:37;;;;;;;8.90;8.00;;;;;;;18.47;92.86;99946.55;131275;1263;106291;-80
2023/09/14 00:44:43;;;;;;;9.50;8.50;;;;;;;18.52;92.80;99951.74;131280;1249;107734;-80
2023/09/14 00:47:50;;;;;;;9.10;8.20;;;;;;;18.55;92.55;99954.41;131204;1253;107583;-80
2023/09/14 00:50:57;;;;;;;8.20;7.20;;;;;;;18.56;92.85;99956.06;131198;1263;107867;-80
2023/09/14 00:54:06;;;;;;;8.70;7.30;;;;;;;18.60;92.38;99964.65;131322;1252;108493;-80
2023/09/14 00:57:22;;;;;;;12.10;8.50;;;;;;;18.64;93.31;99969.79;131248;1253;108108;-81
2023/09/14 01:00:28;;;;;;;10.30;9.10;;;;;;;18.59;93.89;99972.71;131264;1263;108173;-80
2023/09/14 01:03:34;;;;;;;9.60;8.60;;;;;;;18.48;94.18;99971.49;131343;1254;108001;-81
2023/09/14 01:06:40;;;;;;;9.20;8.10;;;;;;;18.42;93.77;99980.02;131387;1253;107326;-80
2023/09/14 01:09:46;;;;;;;8.80;7.90;;;;;;;18.37;94.61;99985.66;131187;1253;107881;-79
2023/09/14 01:12:52;;;;;;;8.50;7.50;;;;;;;18.37;93.99;99983.88;131266;1251;108606;-79
2023/09/14 01:16:06;;;;;;;11.00;8.70;;;;;;;18.39;93.64;99982.83;131266;1248;108521;-80
2023/09/14 01:19:27;;;;;;;11.30;8.90;;;;;;;18.45;93.92;99981.32;131223;1252;108362;-80
2023/09/14 01:22:43;;;;;;;9.20;8.30;;;;;;;18.43;94.09;99982.27;131506;1248;106859;-80
2023/09/14 01:25:52;;;;;;;10.00;8.50;;;;;;;18.41;94.38;99986.52;131377;1248;105579;-80
2023/09/14 01:28:59;;;;;;;9.30;8.10;;;;;;;18.41;93.85;99983.07;131397;1247;108695;-80
2023/09/14 01:32:05;;;;;;;10.50;9.30;;;;;;;18.46;94.22;99986.05;131553;1253;107695;-80
2023/09/14 01:35:11;;;;;;;10.10;9.00;;;;;;;18.47;94.67;99992.79;131444;1253;106875;-80
2023/09/14 01:38:18;;;;;;;10.60;8.80;;;;;;;18.43;94.83;99992.50;131340;1253;107026;-79
2023/09/14 01:41:25;;;;;;;9.70;8.70;;;;;;;18.40;95.33;99993.25;131400;1254;107705;-80
2023/09/14 01:44:31;;;;;;;10.10;8.90;;;;;;;18.39;94.88;99994.46;131171;1248;107458;-80
2023/09/14 01:47:37;;;;;;;9.10;8.20;;;;;;;18.41;95.40;99996.04;131333;1248;107768;-80
2023/09/14 01:50:42;;;;;;;9.20;8.30;;;;;;;18.41;95.67;99997.53;131315;1253;106540;-80
2023/09/14 01:53:48;;;;;;;11.00;8.20;;;;;;;18.36;96.16;99994.89;131359;1250;107059;-80
2023/09/14 01:56:54;;;;;;;10.30;9.30;;;;;;;18.39;95.59;99996.79;131364;1248;106726;-80
2023/09/14 01:59:59;;;;;;;10.50;8.50;;;;;;;18.41;96.60;100003.44;131214;1251;106624;-80
2023/09/14 02:03:08;;;;;;;9.10;8.10;;;;;;;18.35;96.02;100009.06;131264;1261;107665;-80
2023/09/14 02:06:16;;;;;;;10.00;8.50;;;;;;;18.32;96.56;100010.96;131141;1253;107656;-80
2023/09/14 02:09:21;;;;;;;8.20;7.30;;;;;;;18.30;96.75;100013.42;131305;1250;107503;-80
2023/09/14 02:12:27;;;;;;;9.00;7.90;;;;;;;18.29;96.64;100015.16;131485;1252;107189;-79
2023/09/14 02:15:32;;;;;;;8.70;7.80;;;;;;;18.29;96.50;100021.77;131368;1250;106216;-80
2023/09/14 02:18:38;;;;;;;9.60;7.90;;;;;;;18.29;96.67;100021.73;131461;1253;106326;-80
2023/09/14 02:21:43;;;;;;;8.20;7.00;;;;;;;18.25;96.87;100029.42;131318;1250;108660;-80
2023/09/14 02:24:49;;;;;;;9.60;7.40;;;;;;;18.19;97.86;100028.60;131382;1252;107528;-80
2023/09/14 02:27:55;;;;;;;8.30;7.10;;;;;;;18.17;97.36;100028.55;131773;1250;108384;-79
2023/09/14 02:31:05;;;;;;;7.90;7.10;;;;;;;18.16;97.60;100028.88;131245;1253;106096;-80
2023/09/14 02:34:11;;;;;;;7.30;6.60;;;;;;;18.12;97.61;100030.67;131112;1253;107446;-80
2023/09/14 02:37:17;;;;;;;9.00;6.00;;;;;;;18.10;97.50;100034.92;131437;1248;245200;-80
2023/09/14 02:40:23;;;;;;;8.30;6.50;;;;;;;18.08;97.32;100032.10;131291;1254;108501;-78
2023/09/14 02:43:29;;;;;;;7.50;5.90;;;;;;;18.06;97.52;100035.70;132185;1253;109402;-78
2023/09/14 02:46:34;;;;;;;8.30;6.30;;;;;;;18.06;97.07;100038.61;131304;1253;107672;-77
2023/09/14 02:49:40;;;;;;;8.90;6.10;;;;;;;18.06;96.94;100040.40;131262;1250;106928;-77
2023/09/14 02:52:46;;;;;;;6.50;5.60;;;;;;;18.03;97.42;100046.42;131094;1250;107506;-77
2023/09/14 02:55:52;;;;;;;6.80;5.60;;;;;;;17.95;97.51;100046.04;131151;1248;107845;-77
2023/09/14 02:58:58;;;;;;;7.50;5.50;;;;;;;17.93;97.35;100054.63;131215;1252;106418;-77
2023/09/14 03:02:04;;;;;;;6.00;5.30;;;;;;;17.87;97.58;100058.08;131174;1255;106574;-77
2023/09/14 03:05:10;;;;;;;6.40;5.30;;;;;;;17.84;97.87;100058.65;131282;1248;107693;-78
2023/09/14 03:08:16;;;;;;;5.20;4.40;;;;;;;17.80;97.28;100064.52;131242;1253;107582;-78
2023/09/14 03:11:22;;;;;;;5.30;4.70;;;;;;;17.78;97.36;100070.03;131265;1253;107734;-78
2023/09/14 03:14:27;;;;;;;6.90;4.60;;;;;;;17.76;97.82;100075.02;131148;1253;108534;-77
2023/09/14 03:17:33;;;;;;;5.10;4.60;;;;;;;17.72;97.72;100076.16;131107;1253;107785;-78
2023/09/14 03:20:39;;;;;;;5.90;4.90;;;;;;;17.66;97.51;100082.09;131171;1248;106820;-78
2023/09/14 03:23:45;;;;;;;5.20;4.20;;;;;;;17.61;97.42;100081.61;131262;1261;108688;-78
2023/09/14 03:26:52;;;;;;;5.50;4.20;;;;;;;17.60;97.51;100087.67;131269;1253;107810;-78
2023/09/14 03:29:59;;;;;;;6.20;4.60;;;;;;;17.59;97.37;100088.79;131268;1248;107440;-78
2023/09/14 03:33:05;;;;;;;5.40;4.70;;;;;;;17.61;97.12;100092.48;131223;1248;106682;-78
2023/09/14 03:36:12;;;;;;;5.60;4.30;;;;;;;17.57;97.13;100096.89;130978;1248;107856;-78
2023/09/14 03:39:17;;;;;;;5.40;4.00;;;;;;;17.55;97.02;100097.88;131194;1254;107966;-78
2023/09/14 03:42:23;;;;;;;5.40;4.30;;;;;;;17.57;96.77;100101.86;131150;1253;108663;-78
2023/09/14 03:45:29;;;;;;;6.10;5.00;;;;;;;17.58;96.79;100111.38;131308;1248;106849;-78
2023/09/14 03:48:34;;;;;;;6.60;4.70;;;;;;;17.51;97.32;100117.82;131284;1253;108632;-78
2023/09/14 03:51:40;;;;;;;6.10;3.90;;;;;;;17.43;97.26;100117.70;131122;1253;106730;-78
2023/09/14 03:54:45;;;;;;;5.60;4.10;;;;;;;17.43;97.12;100124.64;131311;1251;109289;-78
2023/09/14 03:57:51;;;;;;;5.50;4.10;;;;;;;17.42;97.87;100133.39;131242;1248;108714;-77
2023/09/14 04:00:59;;;;;;;5.50;4.70;;;;;;;17.40;97.11;100138.58;131202;1248;106793;-78
2023/09/14 04:04:05;;;;;;;5.80;4.50;;;;;;;17.41;97.72;100144.55;131127;1263;108552;-77
2023/09/14 04:07:11;;;;;;;7.00;4.80;;;;;;;17.38;97.68;100151.79;131196;1248;108375;-77
2023/09/14 04:10:17;;;;;;;4.50;4.00;;;;;;;17.39;97.51;100154.21;131337;1254;107491;-79
2023/09/14 04:13:32;;;;;;;4.80;4.30;;;;;;;17.39;98.01;100160.96;131244;1263;108050;-78
2023/09/14 04:16:39;;;;;;;6.60;4.00;;;;;;;17.36;98.06;100163.06;131193;1251;107639;-79
2023/09/14 04:19:45;;;;;;;6.60;4.10;;;;;;;17.35;98.15;100163.27;131207;1253;108615;-78
2023/09/14 04:22:51;;;;;;;5.50;4.30;;;;;;;17.34;98.04;100168.52;131266;1253;107737;-79
2023/09/14 04:25:57;;;;;;;5.30;4.30;;;;;;;17.37;97.91;100167.02;131209;1248;107885;-79
2023/09/14 04:29:03;;;;;;;4.80;3.80;;;;;;;17.37;98.17;100173.65;131239;1255;106990;-79
2023/09/14 04:32:09;;;;;;;5.50;4.00;;;;;;;17.36;98.01;100173.02;131093;1253;107421;-79
2023/09/14 04:35:17;;;;;;;4.60;3.80;;;;;;;17.35;98.18;100177.63;131180;1253;106938;-79
2023/09/14 04:38:23;;;;;;;5.90;4.30;;;;;;;17.37;98.08;100177.27;131232;1254;107154;-79
2023/09/14 04:41:30;;;;;;;5.80;4.00;;;;;;;17.41;97.58;100180.36;131099;1254;106837;-78
2023/09/14 04:44:36;;;;;;;6.30;4.10;;;;;;;17.44;97.87;100186.35;131221;1253;106685;-76
2023/09/14 04:47:41;;;;;;;6.60;4.40;;;;;;;17.46;97.55;100194.45;131235;1248;108347;-77
2023/09/14 04:50:48;;;;;;;6.20;4.80;;;;;;;17.43;97.63;100193.90;131364;1248;107785;-78
2023/09/14 04:53:54;;;;;;;4.40;3.90;;;;;;;17.44;97.75;100200.80;131273;1253;107677;-78
2023/09/14 04:56:59;;;;;;;5.60;4.50;;;;;;;17.45;97.86;100205.52;131125;1266;106477;-77
2023/09/14 05:00:09;;;;;;;5.80;4.70;;;;;;;17.45;97.77;100206.80;131095;1253;106984;-76
2023/09/14 05:03:15;;;;;;;6.30;5.10;;;;;;;17.45;97.50;100207.81;131778;1253;106845;-77
2023/09/14 05:06:24;;;;;;;6.10;4.80;;;;;;;17.46;97.85;100216.12;131255;1253;108389;-76
2023/09/14 05:09:29;;;;;;;6.20;4.10;;;;;;;17.42;97.86;100217.42;131230;1251;107452;-78
2023/09/14 05:12:35;;;;;;;5.30;4.20;;;;;;;17.44;97.56;100217.39;131061;1253;107258;-76
2023/09/14 05:15:41;;;;;;;5.10;4.40;;;;;;;17.45;97.48;100215.03;131142;1251;108631;-77
2023/09/14 05:18:47;;;;;;;5.00;4.40;;;;;;;17.51;97.21;100219.34;131240;1248;107368;-77
2023/09/14 05:21:53;;;;;;;5.10;4.20;;;;;;;17.52;97.27;100218.84;131261;1253;107140;-78
2023/09/14 05:24:58;;;;;;;5.60;4.30;;;;;;;17.53;96.92;100221.92;131211;1253;106518;-78
2023/09/14 05:28:05;;;;;;;4.30;3.60;;;;;;;17.51;97.26;100223.15;131285;1247;107689;-78
2023/09/14 05:31:11;;;;;;;6.00;3.80;;;;;;;17.52;96.86;100227.07;131274;1253;107795;-77
2023/09/14 05:34:16;;;;;;;5.80;3.90;;;;;;;17.57;96.59;100224.23;131221;1252;107664;-77
2023/09/14 05:37:22;;;;;;;4.50;3.80;;;;;;;17.63;96.39;100227.23;131295;1253;106369;-76
2023/09/14 05:40:29;;;;;;;4.60;3.00;;;;;;;17.65;95.90;100226.05;131139;1253;106609;-77
2023/09/14 05:43:34;;;;;;;5.00;3.10;;;;;;;17.68;95.72;100226.23;131093;1253;107239;-77
2023/09/14 05:46:41;;;;;;;3.40;2.90;;;;;;;17.72;95.44;100232.65;131248;1254;107305;-77
2023/09/14 05:49:47;;;;;;;4.60;3.10;;;;;;;17.73;95.07;100231.90;131205;1257;107558;-77
2023/09/14 05:52:56;;;;;;;3.80;2.90;;;;;;;17.74;95.03;100234.69;131279;1253;106620;-76
2023/09/14 05:56:02;;;;;;;4.30;2.90;;;;;;;17.73;94.76;100239.08;131219;1253;106765;-77
2023/09/14 05:59:09;;;;;;;4.20;3.00;;;;;;;17.78;95.15;100237.44;131264;1253;106766;-76
2023/09/14 06:02:14;;;;;;;3.50;3.00;;;;;;;17.82;94.86;100237.55;131165;1254;107005;-76
2023/09/14 06:05:20;;;;;;;3.50;2.90;;;;;;;17.84;94.61;100237.66;131224;1253;107733;-77
2023/09/14 06:08:26;;;;;;;4.10;3.10;;;;;;;17.87;94.63;100238.72;131110;1253;107799;-76
2023/09/14 06:11:32;;;;;;;4.60;3.00;;;;;;;17.89;94.57;100244.24;131177;1254;108807;-76
2023/09/14 06:14:38;;;;;;;4.80;3.90;;;;;;;17.94;94.83;100246.05;131091;1251;108678;-77
2023/09/14 06:17:43;;;;;;;5.00;4.40;;;;;;;18.00;95.14;100252.73;131230;1248;107663;-77
2023/09/14 06:20:49;;;;;;;5.00;4.40;;;;;;;18.03;95.48;100252.33;131234;1253;106912;-76
2023/09/14 06:23:55;;;;;;;5.50;4.80;;;;;;;18.07;95.78;100257.41;131367;1252;107674;-77
2023/09/14 06:27:00;;;;;;;7.80;4.90;;;;;;;18.09;95.64;100254.34;131267;1254;107384;-77
2023/09/14 06:30:08;;;;;;;4.90;4.50;;;;;;;18.14;95.71;100257.55;131394;1250;106324;-78
2023/09/14 06:33:14;;;;;;;6.40;5.10;;;;;;;18.19;95.29;100261.98;131312;1253;107572;-77
2023/09/14 06:36:20;;;;;;;6.30;4.90;;;;;;;18.22;95.27;100266.01;131308;1254;106812;-77
2023/09/14 06:39:26;;;;;;;5.60;4.60;;;;;;;18.23;95.16;100263.90;131223;1253;107650;-77
2023/09/14 06:42:31;;;;;;;4.90;4.40;;;;;;;18.29;94.95;100267.12;131330;1254;107798;-77
2023/09/14 06:45:37;;;;;;;5.80;4.80;;;;;;;18.39;94.83;100267.52;131241;1253;107858;-77
2023/09/14 06:48:43;;;;;;;6.10;5.00;;;;;;;18.54;94.69;100265.34;131290;1253;107707;-77
2023/09/14 06:51:49;;;;;;;5.60;5.00;;;;;;;18.63;94.16;100269.44;131236;1253;107890;-77
2023/09/14 06:54:54;;;;;;;4.60;4.20;;;;;;;18.73;94.26;100266.08;131370;1253;106435;-77
2023/09/14 06:58:00;;;;;;;5.10;4.50;;;;;;;18.89;93.45;100269.66;131295;1255;107588;-76
2023/09/14 07:01:05;;;;;;;4.90;4.40;;;;;;;18.99;92.89;100269.79;131246;1253;106464;-77
2023/09/14 07:04:11;;;;;;;5.50;4.10;;;;;;;19.02;91.73;100269.20;131364;1248;107722;-77
2023/09/14 07:07:16;;;;;;;5.00;3.90;;;;;;;18.99;91.29;100274.48;131319;1253;107666;-77
2023/09/14 07:10:22;;;;;;;5.70;4.40;;;;;;;18.90;92.14;100273.19;131227;1248;107700;-77
2023/09/14 07:13:28;;;;;;;6.60;5.90;;;;;;;18.96;92.73;100276.73;131305;1253;107143;-77
2023/09/14 07:16:33;;;;;;;7.10;6.10;;;;;;;19.08;92.70;100281.94;131283;1253;107992;-77
2023/09/14 07:19:39;;;;;;;8.00;6.60;;;;;;;19.24;91.87;100285.88;131269;1254;106506;-76
2023/09/14 07:22:45;;;;;;;6.80;5.60;;;;;;;19.27;91.20;100288.29;131227;1253;107737;-76
2023/09/14 07:25:50;;;;;;;5.80;5.20;;;;;;;19.33;90.70;100295.31;131136;1263;106931;-76
2023/09/14 07:28:58;;;;;;;6.80;5.30;;;;;;;19.36;90.68;100295.65;131321;1253;107725;-76
2023/09/14 07:32:04;;;;;;;7.30;5.40;;;;;;;19.39;89.80;100295.77;131231;1252;107609;-77
2023/09/14 07:35:11;;;;;;;5.90;5.30;;;;;;;19.53;89.69;100295.55;131237;1253;108365;-78
2023/09/14 07:38:17;;;;;;;6.10;5.50;;;;;;;19.58;89.78;100297.86;131245;1248;106787;-78
2023/09/14 07:41:22;;;;;;;4.70;4.10;;;;;;;19.65;89.35;100299.10;131256;1253;107736;-78
2023/09/14 07:44:28;;;;;;;5.20;4.70;;;;;;;19.75;88.22;100300.80;131258;1253;107846;-78
2023/09/14 07:47:34;;;;;;;5.70;5.00;;;;;;;19.95;86.92;100306.71;131245;1261;107768;-78
2023/09/14 07:50:41;;;;;;;4.30;3.90;;;;;;;19.92;86.34;100307.77;131187;1253;107195;-78
2023/09/14 07:53:46;;;;;;;4.50;3.80;;;;;;;19.95;85.74;100314.96;131229;1247;107387;-78
2023/09/14 07:56:52;;;;;;;3.60;3.30;;;;;;;20.03;86.45;100316.05;131242;1248;108094;-78
2023/09/14 07:59:58;;;;;;;3.80;3.20;;;;;;;20.03;85.33;100320.98;131297;1253;107663;-78
2023/09/14 08:03:04;;;;;;;4.70;2.70;;;;;;;19.86;82.53;100320.16;131220;1253;107096;-78
2023/09/14 08:06:09;;;;;;;2.60;2.40;;;;;;;19.67;82.36;100318.13;131257;1252;107656;-78
2023/09/14 08:09:15;;;;;;;5.10;3.30;;;;;;;19.54;82.88;100320.44;131265;1252;107592;-78
2023/09/14 08:12:20;;;;;;;4.00;3.20;;;;;;;19.49;84.04;100322.66;131231;1253;107681;-78
2023/09/14 08:15:28;;;;;;;3.50;3.20;;;;;;;19.48;84.73;100323.48;131254;1253;107458;-78
2023/09/14 08:18:34;;;;;;;3.50;3.20;;;;;;;19.48;85.26;100322.02;131227;1248;107054;-78
2023/09/14 08:21:39;;;;;;;3.90;3.10;;;;;;;19.56;84.47;100323.55;131190;1253;107788;-76
2023/09/14 08:24:45;;;;;;;3.30;3.00;;;;;;;19.74;84.41;100331.50;131200;1253;108562;-76
2023/09/14 08:27:51;;;;;;;5.40;2.90;;;;;;;19.98;83.48;100333.70;131273;1253;106718;-76
2023/09/14 08:30:56;;;;;;;3.90;3.50;;;;;;;20.15;82.98;100334.27;131164;1252;107789;-78
2023/09/14 08:34:02;;;;;;;4.10;3.40;;;;;;;20.23;82.21;100332.66;131263;1248;106991;-77
2023/09/14 08:37:10;;;;;;;3.10;2.80;;;;;;;20.33;81.79;100339.20;131242;1253;106712;-76
2023/09/14 08:40:18;;;;;;;5.20;4.50;;;;;;;20.36;82.26;100339.77;131176;1253;107003;-77
2023/09/14 08:43:24;;;;;;;5.20;4.70;;;;;;;20.29;82.81;100344.46;131387;1261;106957;-77
2023/09/14 08:46:31;;;;;;;6.30;4.90;;;;;;;20.17;83.64;100346.14;131141;1253;107469;-77
2023/09/14 08:49:38;;;;;;;4.70;4.00;;;;;;;20.06;83.91;100349.30;131279;1254;106565;-77
2023/09/14 08:52:45;;;;;;;4.70;4.00;;;;;;;19.96;83.18;100352.55;131296;1252;106326;-77
2023/09/14 08:55:51;;;;;;;4.60;4.20;;;;;;;20.01;83.88;100352.62;131251;1263;108490;-77
2023/09/14 08:58:59;;;;;;;4.90;4.40;;;;;;;20.20;84.34;100349.79;131238;1253;107904;-77
2023/09/14 09:02:08;;;;;;;5.00;4.50;;;;;;;20.47;83.49;100356.93;131178;1253;107694;-77
2023/09/14 09:05:15;;;;;;;6.90;4.20;;;;;;;20.62;81.97;100353.77;131262;1253;107311;-76
2023/09/14 09:08:21;;;;;;;4.80;4.10;;;;;;;20.68;81.54;100351.81;131292;1252;107088;-76
2023/09/14 09:11:29;;;;;;;4.40;4.00;;;;;;;20.76;80.60;100355.56;131292;1252;107026;-77
2023/09/14 09:14:37;;;;;;;5.50;4.10;;;;;;;20.83;80.70;100348.93;131334;1253;107260;-78
2023/09/14 09:17:45;;;;;;;4.10;3.70;;;;;;;20.89;79.88;100348.83;131267;1248;106664;-77
2023/09/14 09:20:50;;;;;;;3.40;3.10;;;;;;;20.88;79.90;100353.70;131209;1254;107726;-78
2023/09/14 09:23:56;;;;;;;3.00;2.60;;;;;;;20.98;80.64;100348.09;131162;1254;107800;-77
2023/09/14 09:27:02;;;;;;;3.60;2.90;;;;;;;21.11;80.29;100346.56;131172;1251;107802;-77
2023/09/14 09:30:09;;;;;;;3.40;3.10;;;;;;;21.17;79.29;100352.73;131173;1254;107640;-77
2023/09/14 09:33:15;;;;;;;3.70;3.40;;;;;;;21.35;78.82;100349.73;131206;1253;106897;-78
2023/09/14 09:36:21;;;;;;;3.90;3.00;;;;;;;21.40;77.56;100347.54;131306;1254;106911;-77
2023/09/14 09:39:27;;;;;;;4.40;3.10;;;;;;;21.23;76.54;100359.75;131192;1253;107767;-77
2023/09/14 09:42:35;;;;;;;4.00;3.10;;;;;;;20.98;77.40;100364.40;131323;1253;108538;-77
2023/09/14 09:45:43;;;;;;;3.50;3.20;;;;;;;20.87;76.89;100365.52;131243;1253;106884;-77
2023/09/14 09:48:49;;;;;;;4.00;3.40;;;;;;;20.82;77.36;100365.42;131140;1253;106289;-77
2023/09/14 09:51:54;;;;;;;2.70;2.50;;;;;;;20.85;78.23;100365.64;131201;1254;108709;-77
2023/09/14 09:55:00;;;;;;;3.00;2.80;;;;;;;20.97;78.13;100369.21;131285;1254;106703;-78
2023/09/14 09:58:08;;;;;;;3.70;3.20;;;;;;;21.01;77.23;100372.52;131249;1249;107245;-77
2023/09/14 10:01:22;;;;;;;3.10;2.80;;;;;;;20.92;76.63;100374.73;131285;1253;107141;-77
2023/09/14 10:04:30;;;;;;;2.90;2.70;;;;;;;20.80;75.73;100375.78;131235;1253;107792;-77
2023/09/14 10:07:39;;;;;;;2.70;2.40;;;;;;;20.69;76.37;100381.05;131288;1253;107534;-77
2023/09/14 10:10:50;;;;;;;2.50;2.30;;;;;;;20.59;76.70;100389.42;131481;1261;107670;-77
2023/09/14 10:14:00;;;;;;;3.20;2.50;;;;;;;20.52;76.56;100392.32;131451;1253;108765;-77
2023/09/14 10:17:10;;;;;;;2.50;2.30;;;;;;;20.47;76.74;100389.35;131283;1253;108713;-77
2023/09/14 10:20:17;;;;;;;2.20;2.00;;;;;;;20.48;77.55;100385.51;131206;1253;107759;-78
2023/09/14 10:23:24;;;;;;;2.90;2.30;;;;;;;20.59;77.54;100392.27;131262;1248;106735;-78
2023/09/14 10:26:32;;;;;;;2.20;2.00;;;;;;;20.72;77.38;100391.52;131285;1253;109035;-78
2023/09/14 10:29:42;;;;;;;1.90;1.70;;;;;;;20.87;76.79;100393.42;131584;1253;107621;-77
2023/09/14 10:32:49;;;;;;;2.60;2.10;;;;;;;21.00;76.75;100394.52;131371;1253;107722;-77
2023/09/14 10:35:56;;;;;;;2.80;2.30;;;;;;;21.09;75.92;100401.89;131304;1250;107105;-76
2023/09/14 11:01:50;;;;;;;2.20;2.00;;;;;;;20.68;77.47;100402.20;128022;1288;648770;-76
2023/09/14 11:05:16;;;;;;;2.50;2.30;;;;;;;21.10;76.98;100401.21;129956;1266;183486;-76
2023/09/14 11:08:22;;;;;;;2.50;2.20;;;;;;;21.31;75.62;100406.29;130169;1266;106792;-76
2023/09/14 11:11:40;;;;;;;3.40;2.40;;;;;;;21.31;74.86;100404.66;130111;1266;107778;-76
2023/09/14 11:15:16;;;;;;;3.80;2.60;;;;;;;21.32;75.13;100402.36;130166;1265;106939;-76
2023/09/14 11:18:33;;;;;;;3.70;2.20;;;;;;;21.30;74.22;100408.38;130256;1266;108712;-76
2023/09/14 11:21:45;;;;;;;2.70;2.50;;;;;;;21.31;74.78;100404.04;130195;1266;106556;-77
2023/09/14 11:24:51;;;;;;;4.10;2.10;;;;;;;21.34;74.35;100400.25;130154;1266;107137;-76
2023/09/14 11:27:58;;;;;;;2.30;2.00;;;;;;;21.43;75.11;100402.95;130066;1266;106685;-76
2023/09/14 11:31:04;;;;;;;2.70;2.00;;;;;;;21.56;74.76;100392.51;130096;1266;107129;-77
2023/09/14 11:34:14;;;;;;;2.70;2.20;;;;;;;21.75;74.09;100397.89;130095;1265;108584;-76
2023/09/14 11:37:20;;;;;;;2.20;2.00;;;;;;;21.90;73.31;100391.26;130202;1266;108048;-77
2023/09/14 11:40:31;;;;;;;2.20;2.00;;;;;;;22.13;72.04;100394.34;130114;1263;108053;-76
2023/09/14 11:43:38;;;;;;;1.90;1.70;;;;;;;22.07;69.21;100399.83;130123;1261;106560;-76
2023/09/14 11:46:47;;;;;;;2.00;1.80;;;;;;;21.86;70.09;100403.59;130123;1264;106665;-75
2023/09/14 11:49:57;;;;;;;2.30;1.70;;;;;;;21.90;69.65;100395.79;130260;1266;108321;-75
2023/09/14 11:53:04;;;;;;;1.60;1.50;;;;;;;22.01;70.53;100391.91;130226;1265;107798;-76
2023/09/14 11:56:09;;;;;;;1.50;1.40;;;;;;;22.21;69.13;100394.73;130214;1266;107689;-77
2023/09/14 11:59:29;;;;;;;1.50;1.40;;;;;;;22.23;68.58;100392.80;130166;1266;107477;-77
2023/09/14 12:02:35;;;;;;;1.60;1.30;;;;;;;22.08;68.72;100397.57;130162;1266;107885;-77
2023/09/14 12:05:41;;;;;;;2.30;1.70;;;;;;;22.00;68.76;100402.30;130108;1265;106713;-77
2023/09/14 12:08:51;;;;;;;2.20;1.80;;;;;;;22.10;68.86;100406.33;130234;1266;107926;-77
2023/09/14 12:11:56;;;;;;;3.10;1.70;;;;;;;22.10;68.57;100405.94;130120;1266;107893;-75
2023/09/14 12:15:02;;;;;;;1.30;1.20;;;;;;;21.82;67.82;100417.35;130129;1266;108703;-77
2023/09/14 12:18:10;;;;;;;1.70;1.40;;;;;;;21.59;69.35;100423.73;130142;1266;106808;-77
2023/09/14 12:21:18;;;;;;;2.30;1.50;;;;;;;21.47;69.86;100424.84;130094;1272;106587;-77
2023/09/14 12:24:24;;;;;;;2.00;1.50;;;;;;;21.31;69.11;100429.17;130593;1263;106541;-76
2023/09/14 12:27:32;;;;;;;1.90;1.60;;;;;;;21.17;69.59;100428.72;130632;1263;107781;-77
2023/09/14 12:30:39;;;;;;;2.20;1.60;;;;;;;21.14;70.01;100430.50;130522;1263;106776;-78
2023/09/14 12:33:46;;;;;;;1.50;1.30;;;;;;;21.13;69.92;100432.23;130576;1270;108584;-77
2023/09/14 12:36:52;;;;;;;1.60;1.40;;;;;;;21.15;70.01;100437.84;130603;1263;106710;-77
2023/09/14 12:39:58;;;;;;;2.60;1.60;;;;;;;21.26;70.11;100434.98;130563;1271;108778;-77
2023/09/14 12:43:05;;;;;;;1.90;1.30;;;;;;;21.40;70.09;100437.76;130437;1257;107591;-77
2023/09/14 12:46:11;;;;;;;2.40;1.40;;;;;;;21.48;69.12;100440.48;130539;1264;109255;-77
2023/09/14 12:49:18;;;;;;;1.20;1.10;;;;;;;21.50;68.74;100442.67;130503;1268;106796;-78
2023/09/14 12:52:26;;;;;;;1.50;1.30;;;;;;;21.59;68.61;100446.96;130502;1262;106826;-77
2023/09/14 12:55:32;;;;;;;1.60;1.30;;;;;;;21.63;68.79;100444.29;130471;1272;106765;-77
2023/09/14 12:58:41;;;;;;;1.70;1.60;;;;;;;21.68;68.66;100447.59;130401;1263;106827;-77
2023/09/14 13:01:47;;;;;;;2.10;1.40;;;;;;;21.65;68.65;100451.41;130407;1263;108584;-77
2023/09/14 13:04:54;;;;;;;1.70;1.50;;;;;;;21.63;68.74;100448.73;130439;1263;107452;-77
2023/09/14 13:08:03;;;;;;;1.60;1.50;;;;;;;21.59;68.45;100450.02;130582;1278;107485;-77
2023/09/14 13:11:20;;;;;;;3.10;2.40;;;;;;;21.50;68.56;100451.63;130337;1275;107769;-76
2023/09/14 13:14:26;;;;;;;2.10;1.50;;;;;;;21.40;69.01;100452.11;130477;1263;106670;-76
2023/09/14 13:17:31;;;;;;;2.10;1.90;;;;;;;21.37;69.70;100450.84;130456;1262;106367;-76
2023/09/14 13:20:38;;;;;;;2.10;1.60;;;;;;;21.37;69.42;100451.02;130500;1264;107892;-76
2023/09/14 13:23:44;;;;;;;4.50;1.90;;;;;;;21.34;68.88;100454.12;130459;1264;107761;-77
2023/09/14 13:26:49;;;;;;;5.30;2.50;;;;;;;21.32;69.05;100454.56;130230;1262;107514;-78
2023/09/14 13:29:55;;;;;;;2.20;1.50;;;;;;;21.41;69.82;100453.63;130433;1270;107775;-76
2023/09/14 13:33:01;;;;;;;3.10;1.60;;;;;;;21.52;69.73;100458.95;130490;1263;107988;-76
2023/09/14 13:36:08;;;;;;;2.10;1.50;;;;;;;21.57;69.23;100463.77;130485;1263;108683;-76
2023/09/14 13:39:13;;;;;;;2.10;1.50;;;;;;;21.51;68.69;100465.73;130464;1263;108010;-77
2023/09/14 13:42:19;;;;;;;1.90;1.40;;;;;;;21.45;69.05;100455.59;130441;1262;107905;-76
2023/09/14 13:45:25;;;;;;;3.30;1.70;;;;;;;21.49;68.90;100458.31;130465;1257;108766;-76
2023/09/14 13:48:31;;;;;;;2.40;1.80;;;;;;;21.55;69.20;100457.27;130494;1264;108642;-76
2023/09/14 13:51:36;;;;;;;2.10;1.70;;;;;;;21.51;68.74;100456.75;130514;1274;106739;-76
2023/09/14 13:54:42;;;;;;;2.50;2.00;;;;;;;21.54;68.82;100449.63;130481;1264;107290;-76
2023/09/14 13:57:48;;;;;;;3.80;1.90;;;;;;;21.67;68.88;100450.06;130522;1264;106493;-76
2023/09/14 14:00:54;;;;;;;2.00;1.80;;;;;;;21.79;68.55;100450.83;130500;1257;106903;-76
2023/09/14 14:04:00;;;;;;;3.00;1.90;;;;;;;21.75;67.58;100451.62;130575;1264;106512;-76
2023/09/14 14:07:06;;;;;;;2.20;1.90;;;;;;;21.63;68.28;100450.73;131425;1261;106815;-77
2023/09/14 14:10:12;;;;;;;2.00;1.80;;;;;;;21.50;68.54;100453.04;130944;1257;108133;-77
2023/09/14 14:13:17;;;;;;;2.50;1.70;;;;;;;21.38;68.77;100454.72;130906;1270;106710;-77
2023/09/14 14:16:23;;;;;;;3.50;2.00;;;;;;;21.30;68.79;100449.89;130841;1263;107348;-77
2023/09/14 14:19:29;;;;;;;3.50;1.80;;;;;;;21.15;69.18;100451.70;130732;1263;107664;-78
2023/09/14 14:22:35;;;;;;;2.40;1.70;;;;;;;20.99;69.66;100455.70;130578;1262;107627;-76
2023/09/14 14:25:41;;;;;;;4.10;1.90;;;;;;;20.72;71.75;100464.73;130642;1263;109897;-76
2023/09/14 14:28:46;;;;;;;2.30;2.00;;;;;;;20.50;72.78;100469.19;130684;1262;109032;-79
2023/09/14 14:31:52;;;;;;;4.70;2.40;;;;;;;20.31;72.63;100465.90;130850;1258;108065;-76